Latest Weather Observations for Ferny Creek

IDV60901

Issued at 8:31 pm EST Monday 3 August 2015 (issued every 10 minutes, with the page automatically refreshed every 10 minutes)

About weather observations | Map of Melbourne area stations | Latest observations for Melbourne area | Other Formats
Station Details ID: 086266 Name: FERNY CREEK Lat: -37.87 Lon: 145.35 Height: 512.9 m
Data from the previous 72 hours. | See also: Recent months at Ferny Creek
Date/Time
EST
Tmp

°C
App
Tmp
°C
Dew
Point
°C
Rel
Hum
%
Delta-T

°C
Wind Press
QNH
hPa
Press
MSL
hPa
Rain
since
9 am
mm
Dir
 
Spd
km/h
Gust
km/h
Spd
kts
Gust
kts
03/08:30pm 1.8 -0.4 1.1 95 0.3 W 2 6 1 3 1021.8 1022.5 5.2
03/08:00pm 1.6 -0.6 0.9 95 0.3 WNW 2 6 1 3 1021.7 1022.4 5.2
03/07:30pm 1.6 -0.6 0.9 95 0.3 W 2 4 1 2 1021.5 1022.2 5.2
03/07:00pm 1.4 -0.9 0.7 95 0.3 W 2 7 1 4 1021.4 1022.1 5.0
03/06:30pm 1.0 -1.3 0.1 94 0.3 WNW 2 4 1 2 1021.0 1021.6 5.0
03/06:00pm 1.1 -1.7 -0.1 92 0.4 W 4 9 2 5 1020.8 1021.5 4.8
03/05:30pm 2.5 0.3 1.3 92 0.5 W 2 4 1 2 1020.3 1021.0 4.4
03/05:00pm 2.7 -0.2 1.2 90 0.6 W 6 11 3 6 1019.9 1020.6 4.4
03/04:30pm 2.6 0.4 1.3 91 0.5 W 2 6 1 3 1019.7 1020.4 4.4
03/04:00pm 2.1 -0.5 0.8 91 0.5 W 4 9 2 5 1019.5 1020.2 4.4
03/03:30pm 1.4 -2.0 -0.4 88 0.7 W 7 13 4 7 1019.3 1019.9 4.4
03/03:00pm 3.6 0.7 1.3 85 0.9 WSW 6 7 3 4 1018.7 1019.4 3.4
03/02:30pm 2.4 -0.6 0.8 89 0.6 W 6 9 3 5 1018.6 1019.3 3.4
03/02:00pm 2.0 -1.3 -0.2 85 0.8 W 7 22 4 12 1018.5 1019.2 3.4
03/01:30pm 4.0 0.9 1.4 83 1.0 W 7 15 4 8 1018.1 1018.8 3.0
03/01:00pm 2.9 -0.2 1.4 90 0.6 W 7 15 4 8 1018.0 1018.7 3.0
03/12:30pm 1.8 -1.5 0.0 88 0.7 W 7 22 4 12 1018.0 1018.7 2.6
03/12:00pm 4.3 2.0 2.7 89 0.7 WSW 4 7 2 4 1017.6 1018.2 2.4
03/11:30am 1.6 -2.8 0.1 90 0.6 WSW 13 30 7 16 1017.7 1018.3 2.4
03/11:00am 2.5 -0.4 1.6 94 0.4 W 6 11 3 6 1017.2 1017.8 2.0
03/10:30am 1.2 -2.9 0.0 92 0.5 W 11 32 6 17 1017.1 1017.7 0.6
03/10:00am 3.7 1.4 2.8 94 0.4 W 4 7 2 4 1016.3 1017.0 0.0
03/09:30am 3.1 0.3 2.1 93 0.4 WNW 6 13 3 7 1015.8 1016.4 0.0
03/09:00am 3.3 0.6 2.7 96 0.2 W 6 15 3 8 1015.3 1015.9 12.2
03/08:30am 3.3 1.0 2.7 96 0.2 W 4 7 2 4 1014.9 1015.5 12.2
03/08:00am 3.3 1.0 2.7 96 0.2 W 4 9 2 5 1014.1 1014.7 12.2
03/07:30am 3.2 0.5 2.6 96 0.2 W 6 15 3 8 1013.3 1013.9 12.2
03/07:00am 3.6 1.0 3.0 96 0.3 W 6 17 3 9 1012.9 1013.5 12.2
03/06:30am 3.7 1.1 3.0 95 0.3 W 6 13 3 7 1012.3 1012.9 12.2
03/06:00am 4.4 1.9 3.7 95 0.3 WSW 6 13 3 7 1011.6 1012.2 9.4
03/05:30am 4.5 2.0 3.8 95 0.3 WSW 6 17 3 9 1011.3 1011.9 9.2
03/05:00am 4.5 2.4 3.8 95 0.3 WSW 4 17 2 9 1011.3 1011.9 9.0
03/04:30am 4.5 2.0 3.6 94 0.4 WNW 6 17 3 9 1011.1 1011.6 9.0
03/04:00am 4.7 2.2 3.7 93 0.4 SW 6 20 3 11 1011.2 1011.7 8.8
03/03:30am 4.9 1.8 3.4 90 0.6 WSW 9 24 5 13 1010.8 1011.3 8.4
03/03:00am 4.9 1.8 3.4 90 0.6 WNW 9 22 5 12 1010.5 1011.1 8.2
03/02:30am 5.0 1.8 3.3 89 0.7 WNW 9 30 5 16 1010.5 1011.1 8.2
03/02:00am 5.1 2.3 3.1 87 0.9 WNW 7 20 4 11 1010.8 1011.3 8.0
03/01:30am 5.1 1.5 3.0 86 0.9 NW 11 28 6 15 1010.9 1011.4 8.0
03/01:00am 5.2 2.0 2.9 85 1.0 WNW 9 28 5 15 1010.9 1011.4 8.0
03/12:30am 5.0 1.8 3.0 87 0.8 W 9 35 5 19 1011.1 1011.6 8.0
03/12:00am 4.7 1.9 3.2 90 0.6 W 7 17 4 9 1011.2 1011.7 8.0
 
Date/Time
EST
Tmp

°C
App
Tmp
°C
Dew
Point
°C
Rel
Hum
%
Delta-T

°C
Wind Press
QNH
hPa
Press
MSL
hPa
Rain
since
9 am
mm
Dir
 
Spd
km/h
Gust
km/h
Spd
kts
Gust
kts
02/11:30pm 4.5 1.9 3.3 92 0.5 WSW 6 15 3 8 1011.5 1012.1 8.0
02/11:00pm 4.4 1.7 3.7 95 0.3 WNW 7 19 4 10 1011.6 1012.2 8.0
02/10:30pm 4.8 2.2 4.2 96 0.3 W 7 22 4 12 1011.7 1012.3 8.0
02/10:00pm 5.5 3.1 5.1 97 0.2 W 7 19 4 10 1011.4 1012.0 8.0
02/09:30pm 5.5 3.3 5.1 97 0.2 W 6 13 3 7 1011.1 1011.6 8.0
02/09:00pm 5.5 3.6 5.1 97 0.2 W 4 9 2 5 1011.2 1011.7 8.0
02/08:30pm 5.3 3.0 4.9 97 0.2 W 6 17 3 9 1011.3 1011.9 8.0
02/08:00pm 5.3 3.0 4.9 97 0.2 W 6 15 3 8 1011.2 1011.7 7.8
02/07:30pm 5.4 2.9 4.8 96 0.3 W 7 17 4 9 1011.1 1011.6 7.2
02/07:00pm 5.7 3.3 5.1 96 0.3 WSW 7 20 4 11 1010.9 1011.4 4.8
02/06:30pm 6.3 4.2 5.6 95 0.3 W 6 22 3 12 1010.3 1010.9 1.6
02/06:00pm 6.3 4.8 5.1 92 0.5 SW 2 9 1 5 1010.2 1010.8 0.8
02/05:30pm 7.4 4.2 3.1 74 1.9 NW 9 24 5 13 1009.6 1010.2 0.0
02/05:00pm 7.8 4.5 2.5 69 2.3 NW 9 19 5 10 1009.2 1009.7 0.0
02/04:30pm 8.0 5.1 2.5 68 2.4 NNW 7 17 4 9 1009.3 1009.8 0.0
02/04:00pm 7.9 4.6 2.4 68 2.4 NW 9 26 5 14 1009.3 1009.8 0.0
02/03:30pm 7.9 5.0 2.6 69 2.3 NW 7 19 4 10 1009.4 1009.9 0.0
02/03:00pm 8.2 4.8 2.0 65 2.7 NW 9 22 5 12 1009.3 1009.8 0.0
02/02:30pm 7.4 4.4 2.1 69 2.3 NNW 7 15 4 8 1009.4 1009.9 0.0
02/02:00pm 7.6 4.2 1.9 67 2.4 NW 9 20 5 11 1009.3 1009.8 0.0
02/01:30pm 8.0 3.8 1.6 64 2.7 NW 13 35 7 19 1009.5 1010.0 0.0
02/01:00pm 7.7 3.9 1.5 65 2.6 NW 11 26 6 14 1010.1 1010.7 0.0
02/12:30pm 8.0 4.1 1.2 62 2.8 NNW 11 26 6 14 1010.3 1010.9 0.0
02/12:00pm 6.8 3.2 0.9 66 2.4 NW 9 24 5 13 1010.8 1011.3 0.0
02/11:30am 7.0 4.0 1.7 69 2.2 WNW 7 19 4 10 1011.4 1012.0 0.0
02/11:00am 6.9 3.8 1.6 69 2.2 NW 7 30 4 16 1011.6 1012.2 0.0
02/10:30am 7.0 3.6 2.1 71 2.1 WNW 9 24 5 13 1011.9 1012.5 0.0
02/10:00am 6.1 2.7 1.8 74 1.8 NW 9 19 5 10 1012.0 1012.6 0.0
02/09:30am 5.0 1.9 1.3 77 1.5 NW 7 15 4 8 1011.8 1012.4 0.0
02/09:00am 4.6 1.5 1.5 80 1.3 NW 7 17 4 9 1011.9 1012.5 1.6
02/08:30am 4.6 1.7 1.6 81 1.2 NW 6 13 3 7 1012.2 1012.8 1.6
02/08:00am 3.5 0.6 1.7 88 0.7 NW 6 9 3 5 1012.4 1013.0 1.6
02/07:30am 3.1 0.3 1.9 92 0.5 WNW 6 11 3 6 1012.7 1013.2 1.6
02/07:00am 2.9 0.4 1.6 91 0.5 WNW 4 9 2 5 1012.5 1013.1 1.6
02/06:30am 3.1 1.0 1.8 91 0.5 NW 2 11 1 6 1012.3 1012.9 1.6
02/06:00am 3.3 0.5 1.8 90 0.6 WNW 6 17 3 9 1012.2 1012.8 1.6
02/05:30am 3.2 1.1 1.7 90 0.6 WNW 2 7 1 4 1012.2 1012.8 1.6
02/05:00am 3.4 0.9 1.8 89 0.6 NW 4 9 2 5 1012.2 1012.8 1.6
02/04:30am 3.5 1.4 1.7 88 0.7 WSW 2 6 1 3 1012.0 1012.6 1.6
02/04:00am 3.7 1.2 1.6 86 0.8 NW 4 9 2 5 1012.4 1013.0 1.6
02/03:30am 3.9 1.4 1.3 83 1.0 NW 4 9 2 5 1012.7 1013.2 1.6
02/03:00am 4.2 1.2 0.7 78 1.4 NW 6 11 3 6 1013.3 1013.9 1.6
02/02:30am 4.3 1.3 0.6 77 1.5 NW 6 13 3 7 1013.5 1014.1 1.6
02/02:00am 4.0 1.4 0.7 79 1.3 NW 4 9 2 5 1013.6 1014.2 1.6
02/01:30am 3.9 1.7 0.9 81 1.2 WNW 2 9 1 5 1014.0 1014.6 1.6
02/01:00am 3.9 1.7 0.9 81 1.2 WNW 2 6 1 3 1014.2 1014.8 1.6
02/12:30am 4.2 1.6 0.9 79 1.3 NW 4 9 2 5 1014.9 1015.5 1.6
02/12:00am 4.1 1.5 1.0 80 1.2 NW 4 7 2 4 1015.4 1016.0 1.6
 
Date/Time
EST
Tmp

°C
App
Tmp
°C
Dew
Point
°C
Rel
Hum
%
Delta-T

°C
Wind Press
QNH
hPa
Press
MSL
hPa
Rain
since
9 am
mm
Dir
 
Spd
km/h
Gust
km/h
Spd
kts
Gust
kts
01/11:30pm 4.1 2.2 0.3 76 1.5 CALM 0 0 0 0 1014.5 1015.2 1.6
01/11:00pm 4.1 1.8 0.4 77 1.5 WNW 2 6 1 3 1015.4 1016.0 1.6
01/10:30pm 3.9 2.0 0.6 79 1.3 CALM 0 0 0 0 1015.1 1015.7 1.6
01/10:00pm 3.8 1.6 1.2 83 1.0 NW 2 4 1 2 1015.6 1016.2 1.6
01/09:30pm 4.0 2.2 1.0 81 1.2 CALM 0 4 0 2 1015.4 1016.0 1.6
01/09:00pm 4.0 2.2 1.4 83 1.0 CALM 0 2 0 1 1015.5 1016.1 1.6
01/08:30pm 3.8 1.9 0.8 81 1.2 CALM 0 0 0 0 1015.2 1015.8 1.6
01/08:00pm 3.7 1.7 0.2 78 1.4 CALM 0 0 0 0 1015.0 1015.6 1.6
01/07:30pm 3.9 2.0 0.6 79 1.3 CALM 0 0 0 0 1015.3 1015.9 1.6
01/07:00pm 3.7 1.9 1.1 83 1.0 CALM 0 0 0 0 1015.3 1015.9 1.6
01/06:30pm 3.9 2.1 1.3 83 1.0 CALM 0 0 0 0 1015.1 1015.7 1.6
01/06:00pm 3.9 2.2 1.6 85 0.9 CALM 0 0 0 0 1014.6 1015.3 1.6
01/05:30pm 4.6 3.0 2.3 85 1.0 CALM 0 0 0 0 1014.4 1015.0 1.6
01/05:00pm 5.6 4.1 3.1 84 1.1 CALM 0 0 0 0 1014.0 1014.6 1.6
01/04:30pm 6.1 4.6 2.9 80 1.4 CALM 0 0 0 0 1013.6 1014.2 1.6
01/04:00pm 6.2 4.3 2.7 78 1.5 SW 2 4 1 2 1013.9 1014.5 1.6
01/03:30pm 6.4 4.5 3.0 79 1.5 SW 2 6 1 3 1013.8 1014.4 1.6
01/03:00pm 6.4 4.4 2.5 76 1.7 SSW 2 9 1 5 1013.7 1014.3 1.6
01/02:30pm 6.2 4.3 2.8 79 1.5 SW 2 7 1 4 1013.4 1014.0 1.6
01/02:00pm 6.4 4.3 4.1 85 1.0 WSW 4 9 2 5 1013.5 1014.1 1.6
01/01:30pm 6.5 4.5 4.3 86 1.0 WSW 4 9 2 5 1013.4 1014.0 1.6
01/01:00pm 6.0 3.5 3.8 86 1.0 WSW 6 9 3 5 1013.3 1013.9 1.6
01/12:30pm 5.9 4.0 4.7 92 0.5 WSW 4 11 2 6 1013.4 1014.0 1.6
01/12:00pm 6.2 4.8 5.5 95 0.3 W 2 6 1 3 1013.7 1014.3 1.6
01/11:30am 6.1 4.3 5.5 96 0.3 W 4 15 2 8 1013.8 1014.4 1.6
01/11:00am 5.8 4.0 5.2 96 0.3 WSW 4 9 2 5 1013.7 1014.3 1.6
01/10:30am 5.6 3.3 5.0 96 0.3 WSW 6 24 3 13 1013.6 1014.2 1.2
01/10:00am 5.7 3.3 5.1 96 0.3 WSW 7 17 4 9 1012.8 1013.3 1.2
01/09:30am 6.5 4.4 5.9 96 0.3 WSW 6 13 3 7 1012.1 1012.9 1.0
01/09:00am 7.0 5.4 6.4 96 0.3 WSW 4 11 2 6 1011.3 1012.0 4.2
01/08:30am 7.1 4.9 6.4 95 0.3 WNW 7 17 4 9 1010.8 1011.5 3.4
01/08:00am 7.3 5.1 6.4 94 0.4 WNW 7 26 4 14 1010.3 1011.1 3.4
01/07:30am 7.4 5.2 6.2 92 0.6 NW 7 19 4 10 1009.6 1010.3 2.0
01/07:00am 7.8 5.5 5.9 88 0.9 N 7 22 4 12 1009.1 1009.8 1.0
01/06:30am 8.7 6.3 5.4 80 1.5 N 7 20 4 11 1008.7 1009.4 0.2
01/06:00am 9.3 6.1 4.9 74 2.0 N 11 28 6 15 1008.1 1008.8 0.0
01/05:30am 9.2 5.6 5.0 75 1.9 N 13 33 7 18 1007.8 1008.5 0.0
01/05:00am 8.7 5.1 4.9 77 1.8 N 13 33 7 18 1007.7 1008.4 0.0
01/04:30am 8.2 4.1 4.6 78 1.6 N 15 35 8 19 1008.2 1008.9 0.0
01/04:00am 8.1 4.7 4.1 76 1.8 N 11 28 6 15 1008.7 1009.4 0.0
01/03:30am 7.7 3.5 3.7 76 1.8 NNE 15 30 8 16 1008.9 1009.6 0.0
01/03:00am 7.8 3.1 3.3 73 2.0 NNE 17 33 9 18 1009.3 1010.0 0.0
01/02:30am 7.2 2.4 2.7 73 1.9 N 17 35 9 19 1010.0 1010.8 0.0
01/02:00am 6.9 2.4 2.0 71 2.1 N 15 35 8 19 1010.2 1011.0 0.0
01/01:30am 6.9 2.8 2.2 72 2.0 N 13 30 7 16 1011.1 1011.8 0.0
01/01:00am 6.7 2.5 1.8 71 2.1 N 13 33 7 18 1011.2 1011.9 0.0
01/12:30am 6.4 2.6 1.7 72 2.0 NNE 11 33 6 18 1012.1 1012.9 0.0
01/12:00am 6.2 1.5 1.1 70 2.1 N 15 33 8 18 1013.1 1013.8 0.0
 
Date/Time
EST
Tmp

°C
App
Tmp
°C
Dew
Point
°C
Rel
Hum
%
Delta-T

°C
Wind Press
QNH
hPa
Press
MSL
hPa
Rain
since
9 am
mm
Dir
 
Spd
km/h
Gust
km/h
Spd
kts
Gust
kts
31/11:30pm 6.0 2.2 1.7 74 1.8 N 11 28 6 15 1013.7 1014.5 0.0
31/11:00pm 6.1 1.5 1.8 74 1.8 N 15 35 8 19 1013.4 1014.2 0.0
31/10:30pm 6.0 2.3 2.1 76 1.6 N 11 22 6 12 1013.7 1014.5 0.0
31/10:00pm 6.0 1.5 1.9 75 1.7 N 15 39 8 21 1013.7 1014.5 0.0
31/09:30pm 5.9 1.7 1.6 74 1.8 N 13 30 7 16 1013.8 1014.6 0.0
31/09:00pm 6.0 1.7 1.3 72 1.9 N 13 30 7 16 1014.0 1014.8 0.0

Latest Capital City Observations: Canberra | Sydney | Melbourne | Brisbane | Adelaide | Perth | Hobart | Darwin

Other Formats:

Comma delimited format used in spreadsheet applications
http://www.bom.gov.au/fwo/IDV60901/IDV60901.94872.axf

JavaScript Object Notation format (JSON) in row-major order
http://www.bom.gov.au/fwo/IDV60901/IDV60901.94872.json